sensor_id;sensor_type;location;lat;lon;timestamp;temperature;humidity
18189;DHT22;9219;50.396;8.546;2023-05-16T00:00:09;10.40;99.90
18189;DHT22;9219;50.396;8.546;2023-05-16T00:02:37;10.40;99.90
18189;DHT22;9219;50.396;8.546;2023-05-16T00:05:05;10.30;99.90
18189;DHT22;9219;50.396;8.546;2023-05-16T00:07:34;10.30;99.90
18189;DHT22;9219;50.396;8.546;2023-05-16T00:12:41;10.30;99.90
18189;DHT22;9219;50.396;8.546;2023-05-16T00:15:10;10.20;99.90
18189;DHT22;9219;50.396;8.546;2023-05-16T00:17:39;10.20;99.90
18189;DHT22;9219;50.396;8.546;2023-05-16T00:20:10;10.20;99.90
18189;DHT22;9219;50.396;8.546;2023-05-16T00:22:39;10.10;99.90
18189;DHT22;9219;50.396;8.546;2023-05-16T00:25:08;10.10;99.90
18189;DHT22;9219;50.396;8.546;2023-05-16T00:27:36;10.20;99.90
18189;DHT22;9219;50.396;8.546;2023-05-16T00:34:39;10.10;99.90
18189;DHT22;9219;50.396;8.546;2023-05-16T00:37:06;9.90;99.90
18189;DHT22;9219;50.396;8.546;2023-05-16T00:39:34;9.90;99.90
18189;DHT22;9219;50.396;8.546;2023-05-16T00:42:01;9.90;99.90
18189;DHT22;9219;50.396;8.546;2023-05-16T00:44:28;9.80;99.90
18189;DHT22;9219;50.396;8.546;2023-05-16T00:46:56;9.80;99.90
18189;DHT22;9219;50.396;8.546;2023-05-16T00:49:26;9.80;99.90
18189;DHT22;9219;50.396;8.546;2023-05-16T00:51:55;9.80;99.90
18189;DHT22;9219;50.396;8.546;2023-05-16T00:59:27;9.80;99.90
18189;DHT22;9219;50.396;8.546;2023-05-16T01:01:55;9.80;99.90
18189;DHT22;9219;50.396;8.546;2023-05-16T01:04:22;9.80;99.90
18189;DHT22;9219;50.396;8.546;2023-05-16T01:06:51;9.80;99.90
18189;DHT22;9219;50.396;8.546;2023-05-16T01:09:19;9.80;99.90
18189;DHT22;9219;50.396;8.546;2023-05-16T01:11:59;9.90;99.90
18189;DHT22;9219;50.396;8.546;2023-05-16T01:14:36;9.90;99.90
18189;DHT22;9219;50.396;8.546;2023-05-16T01:17:07;10.00;99.90
18189;DHT22;9219;50.396;8.546;2023-05-16T01:25:05;10.10;99.90
18189;DHT22;9219;50.396;8.546;2023-05-16T01:27:39;10.10;99.90
18189;DHT22;9219;50.396;8.546;2023-05-16T01:30:14;10.10;99.90
18189;DHT22;9219;50.396;8.546;2023-05-16T01:32:42;10.20;99.90
18189;DHT22;9219;50.396;8.546;2023-05-16T01:35:12;10.20;99.90
18189;DHT22;9219;50.396;8.546;2023-05-16T01:37:45;10.20;99.90
18189;DHT22;9219;50.396;8.546;2023-05-16T01:40:18;10.20;99.90
18189;DHT22;9219;50.396;8.546;2023-05-16T01:47:59;10.30;99.90
18189;DHT22;9219;50.396;8.546;2023-05-16T01:50:32;10.30;99.90
18189;DHT22;9219;50.396;8.546;2023-05-16T01:53:05;10.50;99.90
18189;DHT22;9219;50.396;8.546;2023-05-16T01:55:41;10.50;99.90
18189;DHT22;9219;50.396;8.546;2023-05-16T01:58:09;10.60;99.90
18189;DHT22;9219;50.396;8.546;2023-05-16T02:00:37;10.60;99.90
18189;DHT22;9219;50.396;8.546;2023-05-16T02:03:07;10.60;99.90
18189;DHT22;9219;50.396;8.546;2023-05-16T02:08:21;10.70;99.90
18189;DHT22;9219;50.396;8.546;2023-05-16T02:10:48;10.70;99.90
18189;DHT22;9219;50.396;8.546;2023-05-16T02:13:15;10.70;99.90
18189;DHT22;9219;50.396;8.546;2023-05-16T02:15:43;10.70;99.90
18189;DHT22;9219;50.396;8.546;2023-05-16T02:18:10;10.80;99.90
18189;DHT22;9219;50.396;8.546;2023-05-16T02:20:38;10.80;99.90
18189;DHT22;9219;50.396;8.546;2023-05-16T02:23:05;10.80;99.90
18189;DHT22;9219;50.396;8.546;2023-05-16T02:25:34;10.80;99.90
18189;DHT22;9219;50.396;8.546;2023-05-16T02:33:10;10.80;99.90
18189;DHT22;9219;50.396;8.546;2023-05-16T02:35:37;11.00;99.90
18189;DHT22;9219;50.396;8.546;2023-05-16T02:38:05;11.00;99.90
18189;DHT22;9219;50.396;8.546;2023-05-16T02:40:33;10.90;99.90
18189;DHT22;9219;50.396;8.546;2023-05-16T02:43:00;10.80;99.90
18189;DHT22;9219;50.396;8.546;2023-05-16T02:45:28;10.60;99.90
18189;DHT22;9219;50.396;8.546;2023-05-16T02:47:56;10.60;99.90
18189;DHT22;9219;50.396;8.546;2023-05-16T02:50:25;10.70;99.90
18189;DHT22;9219;50.396;8.546;2023-05-16T02:58:23;10.80;99.90
18189;DHT22;9219;50.396;8.546;2023-05-16T03:00:51;10.50;99.90
18189;DHT22;9219;50.396;8.546;2023-05-16T03:03:18;10.60;99.90
18189;DHT22;9219;50.396;8.546;2023-05-16T03:05:45;10.50;99.90
18189;DHT22;9219;50.396;8.546;2023-05-16T03:08:14;10.60;99.90
18189;DHT22;9219;50.396;8.546;2023-05-16T03:10:41;10.50;99.90
18189;DHT22;9219;50.396;8.546;2023-05-16T03:13:09;10.40;99.90
18189;DHT22;9219;50.396;8.546;2023-05-16T03:15:38;10.30;99.90
18189;DHT22;9219;50.396;8.546;2023-05-16T03:23:11;10.30;99.90
18189;DHT22;9219;50.396;8.546;2023-05-16T03:25:38;10.40;99.90
18189;DHT22;9219;50.396;8.546;2023-05-16T03:28:06;10.50;99.90
18189;DHT22;9219;50.396;8.546;2023-05-16T03:30:34;10.60;99.90
18189;DHT22;9219;50.396;8.546;2023-05-16T03:33:03;10.80;99.90
18189;DHT22;9219;50.396;8.546;2023-05-16T03:35:30;10.90;99.90
18189;DHT22;9219;50.396;8.546;2023-05-16T03:37:59;10.90;99.90
18189;DHT22;9219;50.396;8.546;2023-05-16T03:45:49;10.60;99.90
18189;DHT22;9219;50.396;8.546;2023-05-16T03:48:17;10.90;99.90
18189;DHT22;9219;50.396;8.546;2023-05-16T03:50:44;10.80;99.90
18189;DHT22;9219;50.396;8.546;2023-05-16T03:53:11;10.70;99.90
18189;DHT22;9219;50.396;8.546;2023-05-16T03:55:39;10.80;99.90
18189;DHT22;9219;50.396;8.546;2023-05-16T03:58:07;10.80;99.90
18189;DHT22;9219;50.396;8.546;2023-05-16T04:00:35;10.80;99.90
18189;DHT22;9219;50.396;8.546;2023-05-16T04:03:04;10.70;99.90
18189;DHT22;9219;50.396;8.546;2023-05-16T04:10:36;11.00;99.90
18189;DHT22;9219;50.396;8.546;2023-05-16T04:13:04;10.90;99.90
18189;DHT22;9219;50.396;8.546;2023-05-16T04:15:32;10.90;99.90
18189;DHT22;9219;50.396;8.546;2023-05-16T04:17:59;10.90;99.90
18189;DHT22;9219;50.396;8.546;2023-05-16T04:20:28;10.70;99.90
18189;DHT22;9219;50.396;8.546;2023-05-16T04:22:58;10.40;99.90
18189;DHT22;9219;50.396;8.546;2023-05-16T04:25:26;10.50;99.90
18189;DHT22;9219;50.396;8.546;2023-05-16T04:30:33;10.30;99.90
18189;DHT22;9219;50.396;8.546;2023-05-16T04:33:00;10.50;99.90
18189;DHT22;9219;50.396;8.546;2023-05-16T04:35:28;10.40;99.90
18189;DHT22;9219;50.396;8.546;2023-05-16T04:37:56;10.30;99.90
18189;DHT22;9219;50.396;8.546;2023-05-16T04:40:23;10.20;99.90
18189;DHT22;9219;50.396;8.546;2023-05-16T04:42:51;10.20;99.90
18189;DHT22;9219;50.396;8.546;2023-05-16T04:45:19;10.30;99.90
18189;DHT22;9219;50.396;8.546;2023-05-16T04:53:23;10.00;99.90
18189;DHT22;9219;50.396;8.546;2023-05-16T04:55:50;10.10;99.90
18189;DHT22;9219;50.396;8.546;2023-05-16T04:58:17;10.00;99.90
18189;DHT22;9219;50.396;8.546;2023-05-16T05:00:45;9.90;99.90
18189;DHT22;9219;50.396;8.546;2023-05-16T05:03:13;9.80;99.90
18189;DHT22;9219;50.396;8.546;2023-05-16T05:05:40;9.70;99.90
18189;DHT22;9219;50.396;8.546;2023-05-16T05:08:08;9.80;99.90
18189;DHT22;9219;50.396;8.546;2023-05-16T05:10:37;9.90;99.90
18189;DHT22;9219;50.396;8.546;2023-05-16T05:18:10;9.90;99.90
18189;DHT22;9219;50.396;8.546;2023-05-16T05:20:38;9.60;99.90
18189;DHT22;9219;50.396;8.546;2023-05-16T05:23:06;9.40;99.90
18189;DHT22;9219;50.396;8.546;2023-05-16T05:25:34;9.20;99.90
18189;DHT22;9219;50.396;8.546;2023-05-16T05:28:04;9.20;99.90
18189;DHT22;9219;50.396;8.546;2023-05-16T05:30:31;9.10;99.90
18189;DHT22;9219;50.396;8.546;2023-05-16T05:32:59;9.10;99.90
18189;DHT22;9219;50.396;8.546;2023-05-16T05:43:23;9.00;99.90
18189;DHT22;9219;50.396;8.546;2023-05-16T05:45:51;9.00;99.90
18189;DHT22;9219;50.396;8.546;2023-05-16T05:48:19;9.00;99.90
18189;DHT22;9219;50.396;8.546;2023-05-16T05:50:46;9.10;99.90
18189;DHT22;9219;50.396;8.546;2023-05-16T05:53:15;9.10;99.90
18189;DHT22;9219;50.396;8.546;2023-05-16T05:55:42;9.10;99.90
18189;DHT22;9219;50.396;8.546;2023-05-16T05:58:10;9.00;99.90
18189;DHT22;9219;50.396;8.546;2023-05-16T06:03:50;9.00;99.90
18189;DHT22;9219;50.396;8.546;2023-05-16T06:06:18;9.00;99.90
18189;DHT22;9219;50.396;8.546;2023-05-16T06:08:45;9.00;99.90
18189;DHT22;9219;50.396;8.546;2023-05-16T06:11:13;9.00;99.90
18189;DHT22;9219;50.396;8.546;2023-05-16T06:13:41;9.00;99.90
18189;DHT22;9219;50.396;8.546;2023-05-16T06:16:08;8.90;99.90
18189;DHT22;9219;50.396;8.546;2023-05-16T06:18:35;8.80;99.90
18189;DHT22;9219;50.396;8.546;2023-05-16T06:29:19;9.00;99.90
18189;DHT22;9219;50.396;8.546;2023-05-16T06:31:48;8.90;99.90
18189;DHT22;9219;50.396;8.546;2023-05-16T06:34:17;8.90;99.90
18189;DHT22;9219;50.396;8.546;2023-05-16T06:36:46;8.90;99.90
18189;DHT22;9219;50.396;8.546;2023-05-16T06:39:13;8.80;99.90
18189;DHT22;9219;50.396;8.546;2023-05-16T06:41:40;8.70;99.90
18189;DHT22;9219;50.396;8.546;2023-05-16T06:44:08;8.60;99.90
18189;DHT22;9219;50.396;8.546;2023-05-16T06:52:11;8.30;99.90
18189;DHT22;9219;50.396;8.546;2023-05-16T06:54:39;8.10;99.90
18189;DHT22;9219;50.396;8.546;2023-05-16T06:57:07;8.00;99.90
18189;DHT22;9219;50.396;8.546;2023-05-16T06:59:35;8.10;99.90
18189;DHT22;9219;50.396;8.546;2023-05-16T07:02:03;8.10;99.90
18189;DHT22;9219;50.396;8.546;2023-05-16T07:04:30;8.00;99.90
18189;DHT22;9219;50.396;8.546;2023-05-16T07:06:58;7.80;99.90
18189;DHT22;9219;50.396;8.546;2023-05-16T07:09:27;7.80;99.90
18189;DHT22;9219;50.396;8.546;2023-05-16T07:17:15;8.10;99.90
18189;DHT22;9219;50.396;8.546;2023-05-16T07:19:42;8.00;99.90
18189;DHT22;9219;50.396;8.546;2023-05-16T07:22:10;8.00;99.90
18189;DHT22;9219;50.396;8.546;2023-05-16T07:24:38;8.00;99.90
18189;DHT22;9219;50.396;8.546;2023-05-16T07:27:06;7.90;99.90
18189;DHT22;9219;50.396;8.546;2023-05-16T07:29:34;7.70;99.90
18189;DHT22;9219;50.396;8.546;2023-05-16T07:32:03;7.80;99.90
18189;DHT22;9219;50.396;8.546;2023-05-16T07:42:27;7.80;99.90
18189;DHT22;9219;50.396;8.546;2023-05-16T07:44:55;8.10;99.90
18189;DHT22;9219;50.396;8.546;2023-05-16T07:47:23;8.20;99.90
18189;DHT22;9219;50.396;8.546;2023-05-16T07:49:50;8.20;99.90
18189;DHT22;9219;50.396;8.546;2023-05-16T07:52:17;8.10;99.90
18189;DHT22;9219;50.396;8.546;2023-05-16T07:54:45;8.20;99.90
18189;DHT22;9219;50.396;8.546;2023-05-16T07:57:13;8.10;99.90
18189;DHT22;9219;50.396;8.546;2023-05-16T07:59:43;8.10;99.90
18189;DHT22;9219;50.396;8.546;2023-05-16T08:05:20;8.10;99.90
18189;DHT22;9219;50.396;8.546;2023-05-16T08:07:49;8.30;99.90
18189;DHT22;9219;50.396;8.546;2023-05-16T08:10:20;8.30;99.90
18189;DHT22;9219;50.396;8.546;2023-05-16T08:12:51;8.30;99.90
18189;DHT22;9219;50.396;8.546;2023-05-16T08:15:20;8.20;99.90
18189;DHT22;9219;50.396;8.546;2023-05-16T08:17:49;8.10;99.90
18189;DHT22;9219;50.396;8.546;2023-05-16T08:20:19;8.10;99.90
18189;DHT22;9219;50.396;8.546;2023-05-16T08:25:29;8.10;99.90
18189;DHT22;9219;50.396;8.546;2023-05-16T08:27:59;8.20;99.90
18189;DHT22;9219;50.396;8.546;2023-05-16T08:30:28;8.30;99.90
18189;DHT22;9219;50.396;8.546;2023-05-16T08:32:59;8.30;99.90
18189;DHT22;9219;50.396;8.546;2023-05-16T08:35:32;8.40;99.90
18189;DHT22;9219;50.396;8.546;2023-05-16T08:38:02;8.30;99.90
18189;DHT22;9219;50.396;8.546;2023-05-16T08:45:54;8.40;99.90
18189;DHT22;9219;50.396;8.546;2023-05-16T08:48:23;8.40;99.90
18189;DHT22;9219;50.396;8.546;2023-05-16T08:50:53;8.60;99.90
18189;DHT22;9219;50.396;8.546;2023-05-16T08:53:25;8.60;99.90
18189;DHT22;9219;50.396;8.546;2023-05-16T08:56:01;8.60;99.90
18189;DHT22;9219;50.396;8.546;2023-05-16T08:58:30;8.40;99.90
18189;DHT22;9219;50.396;8.546;2023-05-16T09:03:53;8.50;99.90
18189;DHT22;9219;50.396;8.546;2023-05-16T09:06:24;8.40;99.90
18189;DHT22;9219;50.396;8.546;2023-05-16T09:08:52;8.60;99.90
18189;DHT22;9219;50.396;8.546;2023-05-16T09:11:20;8.60;99.90
18189;DHT22;9219;50.396;8.546;2023-05-16T09:13:50;8.70;99.90
18189;DHT22;9219;50.396;8.546;2023-05-16T09:16:19;8.60;99.90
18189;DHT22;9219;50.396;8.546;2023-05-16T09:21:40;8.40;99.90
18189;DHT22;9219;50.396;8.546;2023-05-16T09:24:09;8.50;99.90
18189;DHT22;9219;50.396;8.546;2023-05-16T09:26:39;8.40;99.90
18189;DHT22;9219;50.396;8.546;2023-05-16T09:29:11;8.70;99.90
18189;DHT22;9219;50.396;8.546;2023-05-16T09:31:40;8.80;99.90
18189;DHT22;9219;50.396;8.546;2023-05-16T09:34:10;8.90;99.90
18189;DHT22;9219;50.396;8.546;2023-05-16T09:39:38;8.80;99.90
18189;DHT22;9219;50.396;8.546;2023-05-16T09:42:10;8.60;99.90
18189;DHT22;9219;50.396;8.546;2023-05-16T09:44:45;8.70;99.90
18189;DHT22;9219;50.396;8.546;2023-05-16T09:47:15;8.90;99.90
18189;DHT22;9219;50.396;8.546;2023-05-16T09:49:46;8.70;99.90
18189;DHT22;9219;50.396;8.546;2023-05-16T09:52:16;8.50;99.90
18189;DHT22;9219;50.396;8.546;2023-05-16T09:54:48;8.70;99.90
18189;DHT22;9219;50.396;8.546;2023-05-16T10:00:05;8.70;99.90
18189;DHT22;9219;50.396;8.546;2023-05-16T10:02:37;8.80;99.90
18189;DHT22;9219;50.396;8.546;2023-05-16T10:05:07;8.80;99.90
18189;DHT22;9219;50.396;8.546;2023-05-16T10:07:37;8.70;99.90
18189;DHT22;9219;50.396;8.546;2023-05-16T10:10:08;8.80;99.90
18189;DHT22;9219;50.396;8.546;2023-05-16T10:12:38;8.70;99.90
18189;DHT22;9219;50.396;8.546;2023-05-16T10:15:09;9.00;99.90
18189;DHT22;9219;50.396;8.546;2023-05-16T10:20:20;9.50;99.90
18189;DHT22;9219;50.396;8.546;2023-05-16T10:22:52;9.70;99.90
18189;DHT22;9219;50.396;8.546;2023-05-16T10:25:27;9.40;99.90
18189;DHT22;9219;50.396;8.546;2023-05-16T10:27:57;9.40;99.90
18189;DHT22;9219;50.396;8.546;2023-05-16T10:30:27;9.50;99.90
18189;DHT22;9219;50.396;8.546;2023-05-16T10:32:56;9.50;99.90
18189;DHT22;9219;50.396;8.546;2023-05-16T10:35:26;9.40;99.90
18189;DHT22;9219;50.396;8.546;2023-05-16T10:43:05;9.30;99.90
18189;DHT22;9219;50.396;8.546;2023-05-16T10:45:38;9.60;99.90
18189;DHT22;9219;50.396;8.546;2023-05-16T10:48:12;10.00;99.90
18189;DHT22;9219;50.396;8.546;2023-05-16T10:50:42;9.90;99.90
18189;DHT22;9219;50.396;8.546;2023-05-16T10:53:17;10.20;99.90
18189;DHT22;9219;50.396;8.546;2023-05-16T10:56:04;10.70;99.90
18189;DHT22;9219;50.396;8.546;2023-05-16T11:01:35;10.90;99.90
18189;DHT22;9219;50.396;8.546;2023-05-16T11:04:10;10.90;99.90
18189;DHT22;9219;50.396;8.546;2023-05-16T11:06:52;11.10;99.90
18189;DHT22;9219;50.396;8.546;2023-05-16T11:09:26;11.30;99.90
18189;DHT22;9219;50.396;8.546;2023-05-16T11:11:59;11.20;99.90
18189;DHT22;9219;50.396;8.546;2023-05-16T11:14:36;11.00;99.90
18189;DHT22;9219;50.396;8.546;2023-05-16T11:20:35;10.90;99.90
18189;DHT22;9219;50.396;8.546;2023-05-16T11:23:20;11.10;99.90
18189;DHT22;9219;50.396;8.546;2023-05-16T11:25:52;11.40;99.90
18189;DHT22;9219;50.396;8.546;2023-05-16T11:28:26;11.60;99.90
18189;DHT22;9219;50.396;8.546;2023-05-16T11:31:01;11.20;99.90
18189;DHT22;9219;50.396;8.546;2023-05-16T11:33:34;11.40;99.90
18189;DHT22;9219;50.396;8.546;2023-05-16T11:36:08;11.30;99.90
18189;DHT22;9219;50.396;8.546;2023-05-16T11:42:48;11.70;99.90
18189;DHT22;9219;50.396;8.546;2023-05-16T11:45:22;11.80;99.90
18189;DHT22;9219;50.396;8.546;2023-05-16T11:47:51;11.80;99.90
18189;DHT22;9219;50.396;8.546;2023-05-16T11:50:21;11.70;99.90
18189;DHT22;9219;50.396;8.546;2023-05-16T11:52:52;11.70;99.90
18189;DHT22;9219;50.396;8.546;2023-05-16T11:55:22;11.80;99.90
18189;DHT22;9219;50.396;8.546;2023-05-16T12:01:03;11.90;99.90
18189;DHT22;9219;50.396;8.546;2023-05-16T12:03:33;12.20;99.90
18189;DHT22;9219;50.396;8.546;2023-05-16T12:06:05;12.20;99.90
18189;DHT22;9219;50.396;8.546;2023-05-16T12:08:49;12.20;99.90
18189;DHT22;9219;50.396;8.546;2023-05-16T12:11:20;12.20;99.90
18189;DHT22;9219;50.396;8.546;2023-05-16T12:13:50;12.10;99.90
18189;DHT22;9219;50.396;8.546;2023-05-16T12:16:23;12.30;99.90
18189;DHT22;9219;50.396;8.546;2023-05-16T12:23:29;12.30;99.90
18189;DHT22;9219;50.396;8.546;2023-05-16T12:26:03;12.40;99.90
18189;DHT22;9219;50.396;8.546;2023-05-16T12:28:35;12.00;99.90
18189;DHT22;9219;50.396;8.546;2023-05-16T12:31:17;11.80;99.90
18189;DHT22;9219;50.396;8.546;2023-05-16T12:33:59;12.00;99.90
18189;DHT22;9219;50.396;8.546;2023-05-16T12:36:31;12.10;99.90
18189;DHT22;9219;50.396;8.546;2023-05-16T12:39:03;12.50;99.90
18189;DHT22;9219;50.396;8.546;2023-05-16T12:46:11;12.80;99.90
18189;DHT22;9219;50.396;8.546;2023-05-16T12:48:41;12.70;99.90
18189;DHT22;9219;50.396;8.546;2023-05-16T12:51:11;12.70;99.90
18189;DHT22;9219;50.396;8.546;2023-05-16T12:53:42;12.90;99.90
18189;DHT22;9219;50.396;8.546;2023-05-16T12:56:28;12.70;99.90
18189;DHT22;9219;50.396;8.546;2023-05-16T12:58:57;12.60;99.90
18189;DHT22;9219;50.396;8.546;2023-05-16T13:04:23;12.40;99.90
18189;DHT22;9219;50.396;8.546;2023-05-16T13:06:53;12.50;99.90
18189;DHT22;9219;50.396;8.546;2023-05-16T13:09:26;12.40;99.90
18189;DHT22;9219;50.396;8.546;2023-05-16T13:12:00;12.40;99.90
18189;DHT22;9219;50.396;8.546;2023-05-16T13:14:31;12.80;99.90
18189;DHT22;9219;50.396;8.546;2023-05-16T13:17:02;12.80;99.90
